Terminal Aerodrome Forecast
Issued by NWS

Home | Current Version | Previous Version | Text Only | Print | Product List | Glossary Off
Versions: 1 2 3 4 5 6 7 8 9 10 11 12 13 14 15 16 17 18 19 20 21 22 23 24

000
FTUS43 KGRB 082300
TAFCWA
TAF
KCWA 082328Z 0900/0924 30009G14KT P6SM VCSH SCT025 BKN060
      TEMPO 0900/0903 5SM -SHRA BKN025
     FM090300 30005KT P6SM SCT030 SCT070
     FM091500 30009KT P6SM BKN035
     FM091700 30009G17KT P6SM VCSH BKN030 BKN070
      AMD LTD TO CLD VIS AND WIND 0903/0911=

USA.gov is the U.S. government's official web portal to all federal, state and local government web resources and services.